createdAt,value
2022-09-01T00:01:27.096Z,13.73
2022-09-01T00:03:55.137Z,13.75
2022-09-01T00:06:24.026Z,13.74
2022-09-01T00:08:51.808Z,13.76
2022-09-01T00:11:18.792Z,13.82
2022-09-01T00:13:45.312Z,13.82
2022-09-01T00:16:14.115Z,13.80
2022-09-01T00:18:42.113Z,13.76
2022-09-01T00:21:09.141Z,13.84
2022-09-01T00:23:35.607Z,13.87
2022-09-01T00:26:02.193Z,13.86
2022-09-01T00:28:30.426Z,13.79
2022-09-01T00:30:57.030Z,13.74
2022-09-01T00:33:23.432Z,13.78
2022-09-01T00:35:49.862Z,13.75
2022-09-01T00:38:16.311Z,13.71
2022-09-01T00:40:42.869Z,13.73
2022-09-01T00:43:36.522Z,13.71
2022-09-01T00:46:07.400Z,13.69
2022-09-01T00:48:36.132Z,13.62
2022-09-01T00:51:04.351Z,13.58
2022-09-01T00:53:31.415Z,13.56
2022-09-01T00:55:57.987Z,13.50
2022-09-01T00:58:24.524Z,13.51
2022-09-01T01:00:52.388Z,13.43
2022-09-01T01:03:18.884Z,13.44
2022-09-01T01:05:54.266Z,13.40
2022-09-01T01:08:34.068Z,13.36
2022-09-01T01:11:04.999Z,13.29
2022-09-01T01:13:36.211Z,13.22
2022-09-01T01:16:03.953Z,13.13
2022-09-01T01:18:30.344Z,13.15
2022-09-01T01:21:23.027Z,13.02
2022-09-01T01:23:57.775Z,12.91
2022-09-01T01:26:24.224Z,12.88
2022-09-01T01:28:52.006Z,12.75
2022-09-01T01:31:23.109Z,12.70
2022-09-01T01:33:54.137Z,12.74
2022-09-01T01:36:25.943Z,12.62
2022-09-01T01:38:53.188Z,12.59
2022-09-01T01:41:19.900Z,12.47
2022-09-01T01:43:48.251Z,12.49
2022-09-01T01:46:15.614Z,12.41
2022-09-01T01:48:42.825Z,12.42
2022-09-01T01:51:11.467Z,12.43
2022-09-01T01:53:38.099Z,12.39
2022-09-01T01:56:06.154Z,12.34
2022-09-01T01:58:33.527Z,12.27
2022-09-01T02:01:00.686Z,12.28
2022-09-01T02:03:30.916Z,12.22
2022-09-01T02:05:57.297Z,12.14
2022-09-01T02:08:25.989Z,12.06
2022-09-01T02:10:53.989Z,12.02
2022-09-01T02:13:30.915Z,12.08
2022-09-01T02:16:02.499Z,12.07
2022-09-01T02:18:35.361Z,11.95
2022-09-01T02:21:02.674Z,11.91
2022-09-01T02:23:29.982Z,11.83
2022-09-01T02:26:15.482Z,11.85
2022-09-01T02:28:43.799Z,11.74
2022-09-01T02:31:11.570Z,11.75
2022-09-01T02:33:38.973Z,11.67
2022-09-01T02:36:06.888Z,11.62
2022-09-01T02:38:33.794Z,11.61
2022-09-01T02:41:02.146Z,11.55
2022-09-01T02:43:29.841Z,11.49
2022-09-01T02:45:59.917Z,11.51
2022-09-01T02:48:32.894Z,11.48
2022-09-01T02:51:03.373Z,11.47
2022-09-01T02:53:30.834Z,11.40
2022-09-01T02:55:59.529Z,11.46
2022-09-01T02:58:26.647Z,11.44
2022-09-01T03:00:54.328Z,11.36
2022-09-01T03:03:21.794Z,11.40
2022-09-01T03:05:52.305Z,11.35
2022-09-01T03:08:19.021Z,11.38
2022-09-01T03:10:47.292Z,11.53
2022-09-01T03:13:15.324Z,11.53
2022-09-01T03:15:42.245Z,11.45
2022-09-01T03:18:09.456Z,11.40
2022-09-01T03:20:36.685Z,11.31
2022-09-01T03:23:08.624Z,11.38
2022-09-01T03:25:36.772Z,11.41
2022-09-01T03:28:04.717Z,11.31
2022-09-01T03:30:32.071Z,11.24
2022-09-01T03:32:58.886Z,11.22
2022-09-01T03:35:25.979Z,11.19
2022-09-01T03:37:52.622Z,11.14
2022-09-01T03:40:19.384Z,11.18
2022-09-01T03:42:45.976Z,11.11
2022-09-01T03:45:15.879Z,11.14
2022-09-01T03:47:43.486Z,10.98
2022-09-01T03:50:23.338Z,11.10
2022-09-01T03:52:52.629Z,10.98
2022-09-01T03:55:23.432Z,10.98
2022-09-01T03:57:50.836Z,10.95
2022-09-01T04:00:20.381Z,11.03
2022-09-01T04:02:54.252Z,10.93
2022-09-01T04:05:28.488Z,10.79
2022-09-01T04:08:01.010Z,10.89
2022-09-01T04:10:27.603Z,10.82
2022-09-01T04:12:58.846Z,10.90
2022-09-01T04:15:26.300Z,10.98
2022-09-01T04:18:20.187Z,11.08
2022-09-01T04:20:48.582Z,11.28
2022-09-01T04:23:26.832Z,11.39
2022-09-01T04:25:56.608Z,11.51
2022-09-01T04:28:24.897Z,11.63
2022-09-01T04:30:56.140Z,11.74
2022-09-01T04:33:24.626Z,11.83
2022-09-01T04:35:52.155Z,11.83
2022-09-01T04:38:18.678Z,11.86
2022-09-01T04:40:45.263Z,11.93
2022-09-01T04:43:11.806Z,12.06
2022-09-01T04:45:38.321Z,12.07
2022-09-01T04:48:05.722Z,12.12
2022-09-01T04:50:32.912Z,12.12
2022-09-01T04:53:02.539Z,12.18
2022-09-01T04:55:30.292Z,12.26
2022-09-01T04:57:57.838Z,12.29
2022-09-01T05:00:25.600Z,12.34
2022-09-01T05:02:53.390Z,12.39
2022-09-01T05:05:20.677Z,12.48
2022-09-01T05:07:52.578Z,12.66
2022-09-01T05:10:19.684Z,12.75
2022-09-01T05:12:46.170Z,12.87
2022-09-01T05:15:14.498Z,12.89
2022-09-01T05:17:41.214Z,12.90
2022-09-01T05:20:09.208Z,12.93
2022-09-01T05:22:35.784Z,12.99
2022-09-01T05:25:13.156Z,12.94
2022-09-01T05:27:40.912Z,12.99
2022-09-01T05:30:08.610Z,13.09
2022-09-01T05:32:37.265Z,13.09
2022-09-01T05:35:06.853Z,13.10
2022-09-01T05:37:33.866Z,13.20
2022-09-01T05:40:01.492Z,13.13
2022-09-01T05:42:28.873Z,13.16
2022-09-01T05:44:56.123Z,13.19
2022-09-01T05:47:23.534Z,13.24
2022-09-01T05:49:50.417Z,13.29
2022-09-01T05:52:16.908Z,13.88
2022-09-01T05:54:43.405Z,13.86
2022-09-01T05:57:32.764Z,13.81
2022-09-01T05:59:57.375Z,13.88
2022-09-01T06:02:23.962Z,13.92
2022-09-01T06:04:50.536Z,13.96
2022-09-01T06:07:17.576Z,14.01
2022-09-01T06:09:48.387Z,14.08
2022-09-01T06:12:18.927Z,14.32
2022-09-01T06:14:46.502Z,14.30
2022-09-01T06:17:16.384Z,14.38
2022-09-01T06:19:43.596Z,14.34
2022-09-01T06:22:10.648Z,14.62
2022-09-01T06:24:39.868Z,14.67
2022-09-01T06:27:09.941Z,14.99
2022-09-01T06:29:39.653Z,15.54
2022-09-01T06:32:13.137Z,15.78
2022-09-01T06:34:40.065Z,15.74
2022-09-01T06:37:07.049Z,15.79
2022-09-01T06:39:34.444Z,15.67
2022-09-01T06:42:01.158Z,15.60
2022-09-01T06:44:27.821Z,15.45
2022-09-01T06:46:54.972Z,15.25
2022-09-01T06:49:32.530Z,15.42
2022-09-01T06:51:59.804Z,15.64
2022-09-01T06:54:26.236Z,15.66
2022-09-01T06:56:53.492Z,15.67
2022-09-01T06:59:20.248Z,16.01
2022-09-01T07:01:48.986Z,16.43
2022-09-01T07:04:20.277Z,17.04
2022-09-01T07:09:50.169Z,20.57
2022-09-01T07:12:25.650Z,20.85
2022-09-01T07:17:42.279Z,22.83
2022-09-01T07:20:25.700Z,24.95
2022-09-01T07:23:10.990Z,25.68
2022-09-01T07:26:01.415Z,27.38
2022-09-01T07:28:36.297Z,27.05
2022-09-01T07:33:54.319Z,27.68
2022-09-01T07:36:29.019Z,27.17
2022-09-01T07:44:28.866Z,23.65
2022-09-01T07:52:29.056Z,20.11
2022-09-01T07:54:55.896Z,19.41
2022-09-01T07:57:22.996Z,19.21
2022-09-01T07:59:53.958Z,19.19
2022-09-01T08:02:20.559Z,19.26
2022-09-01T08:04:47.056Z,19.27
2022-09-01T08:07:17.073Z,19.42
2022-09-01T08:09:44.728Z,19.41
2022-09-01T08:12:11.679Z,19.35
2022-09-01T08:14:38.190Z,19.42
2022-09-01T08:19:53.556Z,19.94
2022-09-01T08:22:24.051Z,19.92
2022-09-01T08:24:51.614Z,19.69
2022-09-01T08:27:18.109Z,19.45
2022-09-01T08:29:44.777Z,20.89
2022-09-01T08:32:11.540Z,22.14
2022-09-01T08:34:38.050Z,24.42
2022-09-01T08:37:07.211Z,23.85
2022-09-01T08:39:34.007Z,24.05
2022-09-01T08:42:06.506Z,23.91
2022-09-01T08:44:58.277Z,24.64
2022-09-01T08:47:35.509Z,25.68
2022-09-01T08:50:12.021Z,27.53
2022-09-01T08:52:52.999Z,28.25
2022-09-01T08:55:25.995Z,29.66
2022-09-01T08:57:59.140Z,29.41
2022-09-01T09:00:28.052Z,30.16
2022-09-01T09:03:13.223Z,28.66
2022-09-01T09:05:58.760Z,29.77
2022-09-01T09:08:33.447Z,29.78
2022-09-01T09:11:00.149Z,28.52
2022-09-01T09:13:41.856Z,27.08
2022-09-01T09:16:12.073Z,27.58
2022-09-01T09:18:59.748Z,26.12
2022-09-01T09:21:40.819Z,24.67
2022-09-01T09:24:21.714Z,22.23
2022-09-01T09:26:50.259Z,21.65
2022-09-01T09:29:16.855Z,22.56
2022-09-01T09:31:46.002Z,25.73
2022-09-01T09:34:27.676Z,26.55
2022-09-01T09:36:55.439Z,26.40
2022-09-01T09:39:23.593Z,25.54
2022-09-01T09:42:10.794Z,27.74
2022-09-01T09:44:45.270Z,30.11
2022-09-01T09:49:41.503Z,25.64
2022-09-01T09:52:09.707Z,26.00
2022-09-01T09:54:38.662Z,27.72
2022-09-01T09:57:17.568Z,28.58
2022-09-01T10:00:00.191Z,28.83
2022-09-01T10:02:33.640Z,29.53
2022-09-01T10:05:22.405Z,29.24
2022-09-01T10:07:49.938Z,27.66
2022-09-01T10:10:31.695Z,28.02
2022-09-01T10:13:00.650Z,28.62
2022-09-01T10:15:34.095Z,27.09
2022-09-01T10:18:28.960Z,24.73
2022-09-01T10:21:31.160Z,23.05
2022-09-01T10:24:21.191Z,22.60
2022-09-01T10:26:54.718Z,22.34
2022-09-01T10:29:48.120Z,23.10
2022-09-01T10:32:36.943Z,22.80
2022-09-01T10:35:18.097Z,22.15
2022-09-01T10:37:52.121Z,21.44
2022-09-01T10:48:33.480Z,21.83
2022-09-01T10:52:13.005Z,21.81
2022-09-01T11:06:12.487Z,26.58
2022-09-01T11:08:50.807Z,25.97
2022-09-01T11:11:37.833Z,24.54
2022-09-01T11:14:32.216Z,24.17
2022-09-01T11:17:38.989Z,24.13
2022-09-01T11:20:45.579Z,24.02
2022-09-01T11:23:28.094Z,23.88
2022-09-01T11:28:47.275Z,24.54
2022-09-01T11:31:23.014Z,25.37
2022-09-01T11:34:16.144Z,25.80
2022-09-01T11:36:51.403Z,27.68
2022-09-01T11:40:08.887Z,27.49
2022-09-01T11:43:21.469Z,27.73
2022-09-01T11:49:46.822Z,28.21
2022-09-01T12:26:18.847Z,27.21
2022-09-01T12:28:48.918Z,27.98
2022-09-01T12:38:56.433Z,27.38
2022-09-01T12:41:32.662Z,26.64
2022-09-01T12:51:35.279Z,26.24
2022-09-01T12:54:04.705Z,26.17
2022-09-01T12:56:39.025Z,26.88
2022-09-01T12:59:14.245Z,26.29
2022-09-01T13:01:42.981Z,26.06
2022-09-01T13:05:36.125Z,25.33
2022-09-01T13:08:24.002Z,24.43
2022-09-01T13:10:53.560Z,24.37
2022-09-01T13:13:20.963Z,23.55
2022-09-01T13:15:53.174Z,23.73
2022-09-01T13:18:22.026Z,23.29
2022-09-01T13:20:50.218Z,23.63
2022-09-01T13:23:17.415Z,23.53
2022-09-01T13:25:46.830Z,24.23
2022-09-01T13:28:15.241Z,24.42
2022-09-01T13:30:44.494Z,24.51
2022-09-01T13:33:20.411Z,23.87
2022-09-01T13:35:48.581Z,24.08
2022-09-01T13:38:16.780Z,24.53
2022-09-01T13:40:46.082Z,24.33
2022-09-01T13:43:15.343Z,23.81
2022-09-01T13:45:43.156Z,23.21
2022-09-01T13:48:16.109Z,23.15
2022-09-01T13:53:32.081Z,22.46
2022-09-01T13:55:58.832Z,21.88
2022-09-01T13:58:25.531Z,22.93
2022-09-01T14:00:52.710Z,22.77
2022-09-01T14:03:22.780Z,23.07
2022-09-01T14:05:50.116Z,22.39
2022-09-01T14:08:19.780Z,22.34
2022-09-01T14:10:50.810Z,22.33
2022-09-01T14:15:10.674Z,21.97
2022-09-01T14:17:19.022Z,21.84
2022-09-01T14:19:52.729Z,21.52
2022-09-01T14:22:19.402Z,21.61
2022-09-01T14:24:45.950Z,21.71
2022-09-01T14:27:12.477Z,21.66
2022-09-01T14:32:05.192Z,21.43
2022-09-01T14:34:31.812Z,21.45
2022-09-01T14:36:59.436Z,21.57
2022-09-01T14:39:28.472Z,21.52
2022-09-01T14:41:55.034Z,21.69
2022-09-01T14:44:21.604Z,21.14
2022-09-01T14:46:49.166Z,20.95
2022-09-01T14:49:21.598Z,20.90
2022-09-01T14:54:37.549Z,20.87
2022-09-01T14:59:51.672Z,21.06
2022-09-01T15:02:19.877Z,21.08
2022-09-01T15:04:46.626Z,20.76
2022-09-01T15:07:14.188Z,20.67
2022-09-01T15:09:40.733Z,20.71
2022-09-01T15:12:08.165Z,20.64
2022-09-01T15:14:34.683Z,20.57
2022-09-01T15:17:01.476Z,20.42
2022-09-01T15:19:28.744Z,20.54
2022-09-01T15:21:56.169Z,20.50
2022-09-01T15:24:23.216Z,20.85
2022-09-01T15:26:50.039Z,21.05
2022-09-01T15:29:16.613Z,21.25
2022-09-01T15:31:44.526Z,21.57
2022-09-01T15:34:13.097Z,21.78
2022-09-01T15:36:41.494Z,21.53
2022-09-01T15:39:10.395Z,21.16
2022-09-01T15:41:37.423Z,20.89
2022-09-01T15:44:06.989Z,20.54
2022-09-01T15:46:35.625Z,20.31
2022-09-01T15:49:05.041Z,20.32
2022-09-01T15:51:37.789Z,20.18
2022-09-01T15:54:16.399Z,20.33
2022-09-01T15:56:44.282Z,20.20
2022-09-01T15:59:11.688Z,20.03
2022-09-01T16:01:44.463Z,19.95
2022-09-01T16:04:19.160Z,19.89
2022-09-01T16:06:49.538Z,19.91
2022-09-01T16:09:18.357Z,19.89
2022-09-01T16:11:45.463Z,19.87
2022-09-01T16:14:23.279Z,19.85
2022-09-01T16:17:05.329Z,19.65
2022-09-01T16:19:44.305Z,19.59
2022-09-01T16:22:20.100Z,19.54
2022-09-01T16:24:50.411Z,19.53
2022-09-01T16:27:41.163Z,19.48
2022-09-01T16:30:12.066Z,19.63
2022-09-01T16:32:43.870Z,19.58
2022-09-01T16:35:10.524Z,19.43
2022-09-01T16:38:16.079Z,19.51
2022-09-01T16:40:56.460Z,19.44
2022-09-01T16:43:47.122Z,19.31
2022-09-01T16:46:35.907Z,19.17
2022-09-01T16:49:43.246Z,19.14
2022-09-01T16:52:22.003Z,19.12
2022-09-01T16:54:59.393Z,19.02
2022-09-01T16:57:46.009Z,19.01
2022-09-01T17:00:16.213Z,18.79
2022-09-01T17:03:17.098Z,18.78
2022-09-01T17:05:55.618Z,18.82
2022-09-01T17:08:25.994Z,18.64
2022-09-01T17:11:10.373Z,18.50
2022-09-01T17:13:44.866Z,18.43
2022-09-01T17:16:20.356Z,18.32
2022-09-01T17:18:52.983Z,18.23
2022-09-01T17:21:36.931Z,18.11
2022-09-01T17:24:12.299Z,18.03
2022-09-01T17:26:42.482Z,17.98
2022-09-01T17:29:24.536Z,17.77
2022-09-01T17:32:00.620Z,17.72
2022-09-01T18:38:48.925Z,15.09
2022-09-01T18:41:19.525Z,15.01
2022-09-01T18:44:00.839Z,14.92
2022-09-01T18:46:54.367Z,14.64
2022-09-01T18:49:33.775Z,14.50
2022-09-01T18:52:13.750Z,14.34
2022-09-01T18:55:01.325Z,14.19
2022-09-01T18:57:35.776Z,14.01
2022-09-01T19:00:12.443Z,13.93
2022-09-01T19:03:04.698Z,13.80
2022-09-01T19:05:43.307Z,13.63
2022-09-01T19:08:31.550Z,13.55
2022-09-01T19:11:34.461Z,13.47
2022-09-01T19:14:40.244Z,13.47
2022-09-01T19:17:31.329Z,13.41
2022-09-01T19:20:23.419Z,13.29
2022-09-01T19:23:12.550Z,13.24
2022-09-01T19:25:41.570Z,13.26
2022-09-01T19:28:36.539Z,13.26
2022-09-01T19:31:22.157Z,13.23
2022-09-01T19:33:53.521Z,13.28
2022-09-01T19:36:28.363Z,13.44
2022-09-01T19:38:58.640Z,13.39
2022-09-01T19:41:37.454Z,13.22
2022-09-01T19:44:33.024Z,13.25
2022-09-01T19:47:13.747Z,13.19
2022-09-01T19:49:58.272Z,13.05
2022-09-01T19:52:46.114Z,12.98
2022-09-01T19:55:38.945Z,12.87
2022-09-01T19:58:11.461Z,12.74
2022-09-01T20:01:01.443Z,12.70
2022-09-01T20:04:09.737Z,12.58
2022-09-01T20:06:43.460Z,12.67
2022-09-01T20:09:09.961Z,12.53
2022-09-01T20:11:36.491Z,12.33
2022-09-01T20:14:24.772Z,12.17
2022-09-01T20:16:55.489Z,11.98
2022-09-01T20:19:38.067Z,12.03
2022-09-01T20:22:36.600Z,11.85
2022-09-01T20:25:20.038Z,11.73
2022-09-01T20:28:01.514Z,11.65
2022-09-01T20:30:40.310Z,11.61
2022-09-01T20:33:18.611Z,11.56
2022-09-01T20:35:48.738Z,11.58
2022-09-01T20:38:49.805Z,11.60
2022-09-01T20:41:25.925Z,11.55
2022-09-01T20:43:54.449Z,11.53
2022-09-01T20:46:23.733Z,11.56
2022-09-01T20:48:50.481Z,11.45
2022-09-01T20:51:19.625Z,11.31
2022-09-01T20:53:49.160Z,11.28
2022-09-01T20:56:41.841Z,11.28
2022-09-01T20:59:35.091Z,11.25
2022-09-01T21:02:14.036Z,11.33
2022-09-01T21:04:58.677Z,11.19
2022-09-01T21:07:34.819Z,11.19
2022-09-01T21:10:10.063Z,11.23
2022-09-01T21:12:56.343Z,11.18
2022-09-01T21:15:32.672Z,11.18
2022-09-01T21:18:08.348Z,11.08
2022-09-01T21:20:43.870Z,11.03
2022-09-01T21:23:10.481Z,10.92
2022-09-01T21:25:37.005Z,10.91
2022-09-01T21:28:06.603Z,10.79
2022-09-01T21:30:35.188Z,10.89
2022-09-01T21:33:01.895Z,10.85
2022-09-01T21:35:28.583Z,10.82
2022-09-01T21:37:55.149Z,10.82
2022-09-01T21:40:24.235Z,10.82
2022-09-01T21:43:05.892Z,10.80
2022-09-01T21:45:35.179Z,10.83
2022-09-01T21:48:02.664Z,10.79
2022-09-01T21:50:29.822Z,10.74
2022-09-01T21:52:56.397Z,10.72
2022-09-01T21:55:24.102Z,10.73
2022-09-01T21:57:51.837Z,10.63
2022-09-01T22:00:22.431Z,10.65
2022-09-01T22:02:49.666Z,10.64
2022-09-01T22:05:16.419Z,10.51
2022-09-01T22:07:45.728Z,10.54
2022-09-01T22:10:17.347Z,10.44
2022-09-01T22:12:46.073Z,10.39
2022-09-01T22:15:16.046Z,10.33
2022-09-01T22:17:43.145Z,10.20
2022-09-01T22:20:12.042Z,10.10
2022-09-01T22:22:39.287Z,10.07
2022-09-01T22:25:14.984Z,9.97
2022-09-01T22:27:41.803Z,9.94
2022-09-01T22:30:09.934Z,9.86
2022-09-01T22:32:37.850Z,9.90
2022-09-01T22:35:09.891Z,9.92
2022-09-01T22:37:37.827Z,10.03
2022-09-01T22:40:06.215Z,9.99
2022-09-01T22:42:33.237Z,9.90
2022-09-01T22:45:00.191Z,9.82
2022-09-01T22:47:26.801Z,9.83
2022-09-01T22:49:56.622Z,9.88
2022-09-01T22:52:23.400Z,9.95
2022-09-01T22:54:51.604Z,9.75
2022-09-01T22:57:18.127Z,9.77
2022-09-01T22:59:44.741Z,9.70
2022-09-01T23:02:11.632Z,9.81
2022-09-01T23:04:39.470Z,9.72
2022-09-01T23:07:07.086Z,9.73
2022-09-01T23:09:34.290Z,9.61
2022-09-01T23:12:00.846Z,9.53
2022-09-01T23:14:28.497Z,9.54
2022-09-01T23:16:55.462Z,9.43
2022-09-01T23:19:23.549Z,9.43
2022-09-01T23:21:51.326Z,9.43
2022-09-01T23:24:19.988Z,9.41
2022-09-01T23:26:47.372Z,9.51
2022-09-01T23:29:13.983Z,9.44
2022-09-01T23:31:41.160Z,9.49
2022-09-01T23:34:08.899Z,9.41
2022-09-01T23:36:36.741Z,9.37
2022-09-01T23:39:05.371Z,9.31
2022-09-01T23:41:34.525Z,9.39
2022-09-01T23:44:03.525Z,9.28
2022-09-01T23:46:33.481Z,9.39
2022-09-01T23:49:02.542Z,9.31
2022-09-01T23:51:29.625Z,9.45
2022-09-01T23:53:56.229Z,9.44
2022-09-01T23:56:26.477Z,9.33
2022-09-01T23:58:53.079Z,9.29
